Time;durP1;ratioP1;P1;durP2;ratioP2;P2;SDS_P1;SDS_P2;PMS_P1;PMS_P2;Temp;Humidity;BMP_temperature;BMP_pressure;BME280_temperature;BME280_humidity;BME280_pressure;Samples;Min_cycle;Max_cycle;Signal;HPM_P1;HPM_P2
2023/05/17 00:01:18;;;;;;;15.20;6.38;;;;;;;9.06;100.00;102457.16;4976374;28;20445;-40
2023/05/17 00:03:43;;;;;;;15.52;6.30;;;;;;;8.73;100.00;102392.38;4975986;28;20038;-40
2023/05/17 00:06:09;;;;;;;21.75;6.95;;;;;;;9.13;100.00;102463.28;4975799;28;20434;-41
2023/05/17 00:08:35;;;;;;;18.25;5.20;;;;;;;9.14;100.00;102459.75;4975977;28;20062;-40
2023/05/17 00:11:00;;;;;;;15.52;5.72;;;;;;;8.86;100.00;102417.78;4958450;28;20118;-40
2023/05/17 00:13:25;;;;;;;19.55;5.75;;;;;;;9.02;100.00;102456.28;4957913;28;20042;-40
2023/05/17 00:15:51;;;;;;;17.55;6.90;;;;;;;8.98;100.00;102446.66;4973522;28;20382;-42
2023/05/17 00:18:16;;;;;;;15.43;5.70;;;;;;;9.09;100.00;102478.16;4995562;28;20409;-42
2023/05/17 00:20:41;;;;;;;18.02;6.53;;;;;;;8.97;100.00;102452.78;4995249;28;20046;-40
2023/05/17 00:23:07;;;;;;;18.25;6.57;;;;;;;8.62;100.00;102401.13;4995319;28;20057;-40
2023/05/17 00:25:32;;;;;;;18.85;6.35;;;;;;;9.05;100.00;102476.41;4994991;28;20485;-42
2023/05/17 00:27:57;;;;;;;17.75;5.93;;;;;;;9.08;100.00;102468.53;4995064;28;20039;-41
2023/05/17 00:30:23;;;;;;;20.02;6.30;;;;;;;8.77;100.00;102409.91;4994922;28;20049;-42
2023/05/17 00:32:48;;;;;;;27.67;8.02;;;;;;;9.12;100.00;102459.78;4962380;28;20050;-41
2023/05/17 00:35:13;;;;;;;22.63;6.88;;;;;;;9.14;100.00;102471.16;4975750;28;20117;-41
2023/05/17 00:37:39;;;;;;;24.50;7.63;;;;;;;9.13;100.00;102474.69;4975599;28;20038;-41
2023/05/17 00:40:05;;;;;;;19.80;6.78;;;;;;;8.96;100.00;102453.66;4975456;28;20038;-43
2023/05/17 00:42:30;;;;;;;18.63;6.68;;;;;;;8.78;100.00;102406.41;4958239;28;20031;-40
2023/05/17 00:44:56;;;;;;;16.30;6.68;;;;;;;9.04;100.00;102457.16;4975510;28;20043;-42
2023/05/17 00:47:21;;;;;;;20.88;6.63;;;;;;;9.09;100.00;102464.16;4974360;28;20046;-39
2023/05/17 00:49:46;;;;;;;17.73;7.03;;;;;;;8.17;100.00;102304.88;4994237;28;20045;-41
2023/05/17 00:52:12;;;;;;;18.42;6.88;;;;;;;8.72;100.00;102403.78;4977213;28;20030;-43
2023/05/17 00:54:38;;;;;;;19.70;6.55;;;;;;;8.97;100.00;102442.28;4994607;28;20113;-42
2023/05/17 00:57:04;;;;;;;21.90;6.93;;;;;;;8.92;100.00;102461.53;4994623;28;20483;-40
2023/05/17 00:59:30;;;;;;;18.38;6.85;;;;;;;8.93;100.00;102472.03;4994899;28;20385;-44
2023/05/17 01:01:55;;;;;;;21.90;7.07;;;;;;;8.82;100.00;102455.41;4977158;28;20125;-39
2023/05/17 01:04:21;;;;;;;15.68;6.35;;;;;;;8.45;100.00;102401.13;4975597;28;20045;-41
2023/05/17 01:06:46;;;;;;;22.70;6.78;;;;;;;8.47;100.00;102413.38;4994475;28;20121;-43
2023/05/17 01:09:12;;;;;;;19.77;7.25;;;;;;;8.79;100.00;102468.53;4994314;28;20045;-42
2023/05/17 01:11:44;;;;;;;20.13;6.38;;;;;;;8.77;100.00;102451.91;4977010;28;20050;-43
2023/05/17 01:14:28;;;;;;;19.42;6.47;;;;;;;8.83;100.00;102457.16;4994441;28;20053;-42
2023/05/17 01:16:56;;;;;;;15.63;6.15;;;;;;;8.46;100.00;102380.13;4994380;28;20034;-41
2023/05/17 01:19:57;;;;;;;14.77;6.90;;;;;;;8.92;100.00;102454.53;4975126;28;20072;-42
2023/05/17 01:22:25;;;;;;;22.25;6.45;;;;;;;8.94;100.00;102463.28;4936201;28;20046;-42
2023/05/17 01:24:56;;;;;;;19.05;5.90;;;;;;;9.00;100.00;102465.91;4994185;28;20130;-41
2023/05/17 01:27:24;;;;;;;14.10;6.00;;;;;;;8.78;100.00;102413.41;4994176;28;20175;-41
2023/05/17 01:29:50;;;;;;;16.83;6.60;;;;;;;9.09;100.00;102458.91;4976653;28;20058;-43
2023/05/17 01:32:17;;;;;;;21.27;6.90;;;;;;;8.76;100.00;102394.13;4993928;28;20030;-44
2023/05/17 01:34:42;;;;;;;18.98;6.07;;;;;;;9.17;100.00;102460.63;4958567;28;20109;-42
2023/05/17 01:37:07;;;;;;;18.48;7.00;;;;;;;8.99;100.00;102421.25;4993441;28;20153;-43
2023/05/17 01:39:33;;;;;;;16.45;6.05;;;;;;;8.87;100.00;102400.28;4993800;28;20034;-41
2023/05/17 01:42:18;;;;;;;13.23;5.65;;;;;;;9.27;100.00;102466.78;4993595;28;20195;-40
2023/05/17 01:45:20;;;;;;;24.02;7.18;;;;;;;9.27;100.00;102465.03;4993413;28;20119;-43
2023/05/17 01:48:04;;;;;;;17.60;6.35;;;;;;;8.45;100.00;102325.91;4963307;28;20581;-42
2023/05/17 01:50:31;;;;;;;18.13;6.10;;;;;;;8.54;100.00;102338.16;4993228;28;20485;-42
2023/05/17 01:53:17;;;;;;;18.55;6.63;;;;;;;9.26;100.00;102468.53;4963249;28;20134;-41
2023/05/17 01:55:43;;;;;;;18.20;6.55;;;;;;;9.25;100.00;102469.38;4973787;28;20049;-40
2023/05/17 01:58:09;;;;;;;17.10;5.93;;;;;;;8.83;100.00;102383.63;4974120;28;20031;-42
2023/05/17 02:00:35;;;;;;;20.92;7.45;;;;;;;9.26;100.00;102468.53;4956859;28;20474;-40
2023/05/17 02:03:00;;;;;;;17.83;6.35;;;;;;;9.02;100.00;102411.63;4956738;28;20039;-40
2023/05/17 02:05:25;;;;;;;9.23;5.97;;;;;;;9.04;100.00;102404.63;4956543;28;20129;-40
2023/05/17 02:07:51;;;;;;;15.02;6.45;;;;;;;9.47;100.00;102462.34;4956691;28;20042;-42
2023/05/17 02:10:16;;;;;;;17.80;6.80;;;;;;;9.54;100.00;102470.22;4988633;28;20093;-41
2023/05/17 02:12:42;;;;;;;14.30;6.53;;;;;;;9.17;100.00;102389.72;4993655;28;20038;-39
2023/05/17 02:15:10;;;;;;;19.48;6.68;;;;;;;9.27;100.00;102387.94;4993121;28;20067;-41
2023/05/17 02:17:35;;;;;;;16.45;6.95;;;;;;;9.54;100.00;102422.88;4993389;28;20042;-41
2023/05/17 02:20:00;;;;;;;18.00;6.85;;;;;;;9.70;100.00;102447.41;4993036;28;20425;-42
2023/05/17 02:22:26;;;;;;;15.23;6.00;;;;;;;9.72;100.00;102458.78;4993246;28;20298;-42
2023/05/17 02:24:51;;;;;;;13.65;5.63;;;;;;;9.61;100.00;102439.53;4975613;28;20034;-43
2023/05/17 02:27:16;;;;;;;15.35;5.90;;;;;;;9.72;100.00;102455.28;4974511;28;20046;-41
2023/05/17 02:29:42;;;;;;;20.48;6.70;;;;;;;9.63;100.00;102449.16;4992983;28;20053;-41
2023/05/17 02:32:07;;;;;;;14.57;6.05;;;;;;;9.62;100.00;102446.56;4992964;28;20046;-41
2023/05/17 02:34:33;;;;;;;16.02;6.55;;;;;;;9.35;100.00;102408.06;4975628;28;20035;-41
2023/05/17 02:36:58;;;;;;;15.45;5.95;;;;;;;9.51;100.00;102443.09;4992886;28;20094;-41
2023/05/17 02:39:23;;;;;;;20.08;5.07;;;;;;;9.25;100.00;102414.19;4992991;28;20089;-40
2023/05/17 02:41:48;;;;;;;15.52;5.88;;;;;;;9.61;100.00;102478.97;4983667;28;20110;-42
2023/05/17 02:44:14;;;;;;;16.75;5.55;;;;;;;9.51;100.00;102446.59;4973890;28;20119;-45
2023/05/17 02:46:39;;;;;;;16.58;5.13;;;;;;;9.62;100.00;102475.47;4973457;28;20078;-42
2023/05/17 02:49:04;;;;;;;15.95;5.15;;;;;;;9.66;100.00;102492.13;4973398;28;20037;-43
2023/05/17 02:51:30;;;;;;;16.08;5.45;;;;;;;9.66;100.00;102482.44;4956117;28;20043;-41
2023/05/17 02:53:55;;;;;;;19.80;5.20;;;;;;;9.65;100.00;102469.31;4973004;28;20086;-41
2023/05/17 02:56:21;;;;;;;14.85;5.60;;;;;;;9.46;100.00;102448.34;4956268;28;20053;-41
2023/05/17 02:58:46;;;;;;;18.00;6.05;;;;;;;9.63;100.00;102481.59;4972276;28;20037;-42
2023/05/17 03:01:12;;;;;;;15.02;6.82;;;;;;;9.55;100.00;102471.97;4956190;28;20042;-40
2023/05/17 03:03:37;;;;;;;18.83;6.25;;;;;;;9.56;100.00;102468.47;4973161;28;20034;-42
2023/05/17 03:06:03;;;;;;;18.55;6.40;;;;;;;9.53;100.00;102472.84;4973359;28;20039;-42
2023/05/17 03:08:30;;;;;;;17.38;5.55;;;;;;;9.63;100.00;102488.59;4973139;28;20027;-41
2023/05/17 03:10:55;;;;;;;12.75;6.05;;;;;;;9.62;100.00;102491.25;4972920;28;20059;-41
2023/05/17 03:13:20;;;;;;;14.32;5.93;;;;;;;9.61;100.00;102486.84;4979944;28;20042;-42
2023/05/17 03:15:46;;;;;;;16.05;6.07;;;;;;;9.24;100.00;102412.47;4958978;28;20049;-40
2023/05/17 03:18:11;;;;;;;19.73;5.63;;;;;;;9.48;100.00;102456.22;4992568;28;20034;-40
2023/05/17 03:20:36;;;;;;;13.02;4.50;;;;;;;9.33;100.00;102412.47;4958566;28;20062;-44
2023/05/17 03:23:02;;;;;;;14.18;5.68;;;;;;;9.36;100.00;102422.09;4992127;28;20037;-41
2023/05/17 03:25:27;;;;;;;19.58;5.57;;;;;;;9.80;100.00;102485.06;4992790;28;20039;-42
2023/05/17 03:27:52;;;;;;;15.35;5.70;;;;;;;9.71;100.00;102464.03;4975207;28;20022;-41
2023/05/17 03:30:18;;;;;;;14.65;5.13;;;;;;;9.90;100.00;102484.13;4990710;28;20124;-40
2023/05/17 03:32:44;;;;;;;14.57;5.03;;;;;;;9.57;100.00;102419.41;4992355;28;20042;-45
2023/05/17 03:35:10;;;;;;;14.60;4.93;;;;;;;9.96;100.00;102487.63;4974903;28;20030;-43
2023/05/17 03:37:35;;;;;;;14.82;4.95;;;;;;;9.92;100.00;102499.06;4974876;28;20045;-42
2023/05/17 03:40:00;;;;;;;16.65;4.65;;;;;;;9.48;100.00;102430.81;4992564;28;20031;-40
2023/05/17 03:42:26;;;;;;;14.43;4.82;;;;;;;9.27;100.00;102441.38;4992373;28;20035;-43
2023/05/17 03:44:51;;;;;;;14.60;4.38;;;;;;;9.79;100.00;102513.13;4971530;28;20030;-44
2023/05/17 03:47:16;;;;;;;14.82;4.13;;;;;;;9.76;100.00;102510.50;4972891;28;20035;-45
2023/05/17 03:49:42;;;;;;;15.65;4.90;;;;;;;9.82;100.00;102520.13;4972721;28;20501;-43
2023/05/17 03:52:07;;;;;;;19.13;5.45;;;;;;;9.78;100.00;102516.59;4972835;28;20043;-43
2023/05/17 03:54:32;;;;;;;12.63;4.05;;;;;;;9.78;100.00;102521.03;4972741;28;20043;-42
2023/05/17 03:56:58;;;;;;;16.80;4.90;;;;;;;9.74;100.00;102521.88;4955126;28;20127;-42
2023/05/17 03:59:23;;;;;;;19.15;4.13;;;;;;;9.57;100.00;102495.66;4973848;28;20074;-44
2023/05/17 04:01:48;;;;;;;14.82;4.70;;;;;;;9.73;100.00;102535.91;4982911;28;20030;-41
2023/05/17 04:04:13;;;;;;;14.93;4.25;;;;;;;9.32;100.00;102471.13;4995653;28;20185;-40
2023/05/17 04:06:40;;;;;;;16.48;4.15;;;;;;;9.26;100.00;102468.53;4995549;28;20510;-40
2023/05/17 04:09:06;;;;;;;16.25;4.35;;;;;;;9.22;100.00;102481.69;4995652;28;20073;-44
2023/05/17 04:11:31;;;;;;;14.68;4.05;;;;;;;9.17;100.00;102486.03;4995725;28;20124;-42
2023/05/17 04:13:57;;;;;;;16.92;4.50;;;;;;;9.38;100.00;102528.06;4994587;28;20088;-41
2023/05/17 04:16:22;;;;;;;13.90;3.78;;;;;;;9.41;100.00;102549.09;4995175;28;20046;-41
2023/05/17 04:18:51;;;;;;;14.50;4.25;;;;;;;9.36;100.00;102551.75;4993442;28;20054;-43
2023/05/17 04:21:17;;;;;;;16.52;4.25;;;;;;;8.79;100.00;102465.91;4995408;28;20514;-42
2023/05/17 04:23:43;;;;;;;12.35;3.67;;;;;;;9.12;100.00;102532.44;4995392;28;20054;-42
2023/05/17 04:26:08;;;;;;;15.57;4.00;;;;;;;9.21;100.00;102558.72;4978013;28;20153;-41
2023/05/17 04:28:34;;;;;;;18.40;5.45;;;;;;;9.04;100.00;102540.34;4977851;28;20385;-44
2023/05/17 04:31:00;;;;;;;16.17;4.07;;;;;;;8.73;100.00;102502.66;4995281;28;20034;-44
2023/05/17 04:33:25;;;;;;;16.83;4.28;;;;;;;8.61;100.00;102494.75;4995147;28;20434;-41
2023/05/17 04:35:53;;;;;;;11.02;3.10;;;;;;;9.02;100.00;102566.59;4993258;28;20045;-43
2023/05/17 04:38:19;;;;;;;16.95;4.13;;;;;;;8.62;100.00;102514.00;4995409;28;20100;-42
2023/05/17 04:40:44;;;;;;;21.77;4.00;;;;;;;8.98;100.00;102577.09;4977833;28;20549;-41
2023/05/17 04:43:09;;;;;;;17.40;4.32;;;;;;;8.96;100.00;102590.22;4995000;28;20038;-42
2023/05/17 04:45:36;;;;;;;17.85;4.40;;;;;;;8.98;100.00;102591.13;4995152;28;20398;-42
2023/05/17 04:48:02;;;;;;;15.38;3.65;;;;;;;9.00;100.00;102591.09;4994956;28;20064;-40
2023/05/17 04:50:27;;;;;;;16.92;4.05;;;;;;;8.99;100.00;102594.59;4994706;28;20469;-40
2023/05/17 04:52:52;;;;;;;17.42;3.78;;;;;;;9.00;100.00;102604.25;4975658;28;20114;-42
2023/05/17 04:55:18;;;;;;;18.23;4.45;;;;;;;8.80;100.00;102571.81;4994767;28;20038;-42
2023/05/17 04:57:43;;;;;;;16.25;4.03;;;;;;;8.66;100.00;102542.03;4994679;28;20045;-41
2023/05/17 05:00:09;;;;;;;15.55;3.83;;;;;;;8.99;100.00;102598.09;4994514;28;20117;-42
2023/05/17 05:02:35;;;;;;;15.18;3.50;;;;;;;9.13;100.00;102615.66;4976789;28;20046;-40
2023/05/17 05:05:01;;;;;;;17.83;4.35;;;;;;;9.16;100.00;102618.28;4977157;28;20039;-42
2023/05/17 05:07:26;;;;;;;18.00;4.35;;;;;;;9.20;100.00;102612.16;4994763;28;20058;-43
2023/05/17 05:09:51;;;;;;;16.30;4.40;;;;;;;9.26;100.00;102620.03;4949792;28;20092;-44
2023/05/17 05:12:17;;;;;;;26.63;5.25;;;;;;;9.28;100.00;102626.19;4954309;29;20329;-42
2023/05/17 05:14:43;;;;;;;11.80;3.13;;;;;;;9.14;100.00;102588.50;4938395;29;20057;-42
2023/05/17 05:17:08;;;;;;;19.15;3.78;;;;;;;9.03;100.00;102572.72;4955748;29;20067;-42
2023/05/17 05:19:33;;;;;;;12.80;3.80;;;;;;;9.41;100.00;102633.19;4955349;29;20043;-42
2023/05/17 05:21:59;;;;;;;15.55;3.72;;;;;;;9.50;100.00;102634.09;4962841;28;20517;-41
2023/05/17 05:24:24;;;;;;;14.13;4.07;;;;;;;9.60;100.00;102648.13;4975116;28;20043;-43
2023/05/17 05:26:50;;;;;;;17.05;4.25;;;;;;;9.38;100.00;102585.88;4970416;28;20485;-42
2023/05/17 05:29:16;;;;;;;17.48;3.50;;;;;;;9.45;100.00;102592.91;4957486;28;20047;-42
2023/05/17 05:31:42;;;;;;;14.80;4.28;;;;;;;9.56;100.00;102596.41;4957167;28;20043;-42
2023/05/17 05:34:07;;;;;;;19.58;4.13;;;;;;;10.00;100.00;102647.22;4984742;28;20041;-41
2023/05/17 05:36:33;;;;;;;16.80;3.72;;;;;;;10.04;100.00;102648.94;4976401;28;20121;-41
2023/05/17 05:38:58;;;;;;;18.30;3.83;;;;;;;9.81;100.00;102594.63;4976785;28;20046;-45
2023/05/17 05:41:24;;;;;;;12.80;4.03;;;;;;;10.20;100.00;102662.13;4971324;28;20118;-41
2023/05/17 05:43:49;;;;;;;11.45;2.55;;;;;;;10.01;100.00;102606.84;4958641;28;20470;-44
2023/05/17 05:46:14;;;;;;;15.90;3.25;;;;;;;10.47;100.00;102680.50;4993847;28;20030;-41
2023/05/17 05:48:40;;;;;;;11.35;3.05;;;;;;;10.45;100.00;102675.22;4975771;28;20039;-43
2023/05/17 05:51:07;;;;;;;12.85;2.83;;;;;;;10.53;100.00;102691.88;4981961;28;20062;-40
2023/05/17 05:53:32;;;;;;;13.32;3.00;;;;;;;10.53;100.00;102659.41;4956518;28;20034;-41
2023/05/17 05:55:57;;;;;;;11.85;2.97;;;;;;;10.70;100.00;102679.53;4954985;29;20431;-42
2023/05/17 05:58:23;;;;;;;13.07;3.20;;;;;;;10.90;100.00;102705.78;4938546;28;20077;-41
2023/05/17 06:00:48;;;;;;;13.52;2.80;;;;;;;10.99;100.00;102703.13;4993217;28;20026;-43
2023/05/17 06:03:14;;;;;;;14.98;3.33;;;;;;;11.10;100.00;102711.84;4987589;28;20097;-40
2023/05/17 06:05:39;;;;;;;13.73;3.70;;;;;;;11.16;100.00;102709.19;4956675;28;20117;-41
2023/05/17 06:08:05;;;;;;;8.90;2.83;;;;;;;11.07;100.00;102701.31;4972005;28;20126;-43
2023/05/17 06:10:31;;;;;;;13.60;3.33;;;;;;;11.28;100.00;102721.44;4973260;28;20056;-42
2023/05/17 06:12:56;;;;;;;11.70;3.25;;;;;;;11.29;100.00;102725.81;4973208;28;20415;-41
2023/05/17 06:15:22;;;;;;;12.68;3.30;;;;;;;11.45;100.00;102732.75;4959950;28;20031;-42
2023/05/17 06:17:47;;;;;;;13.88;3.08;;;;;;;11.64;100.00;102733.53;4972857;28;20121;-42
2023/05/17 06:20:13;;;;;;;13.70;2.58;;;;;;;11.83;100.00;102729.88;4972129;28;20058;-42
2023/05/17 06:22:39;;;;;;;12.77;2.83;;;;;;;11.41;100.00;102648.41;4972832;28;20112;-40
2023/05/17 06:25:05;;;;;;;11.50;3.13;;;;;;;11.83;100.00;102721.97;4973819;28;20483;-42
2023/05/17 06:27:31;;;;;;;9.07;2.90;;;;;;;11.67;100.00;102708.00;4972913;28;20077;-40
2023/05/17 06:29:57;;;;;;;12.38;2.67;;;;;;;11.76;100.00;102736.09;4972157;28;20490;-40
2023/05/17 06:32:22;;;;;;;11.50;2.65;;;;;;;11.72;100.00;102740.53;4972323;28;20046;-42
2023/05/17 06:34:47;;;;;;;15.90;2.67;;;;;;;11.56;100.00;102690.47;4953335;28;20030;-43
2023/05/17 06:37:13;;;;;;;11.48;3.45;;;;;;;11.60;100.00;102679.03;4971276;28;20098;-43
2023/05/17 06:39:38;;;;;;;10.65;2.97;;;;;;;11.93;100.00;102735.97;4972097;28;20045;-44
2023/05/17 06:42:04;;;;;;;14.65;3.17;;;;;;;12.18;100.00;102750.72;4982983;28;20053;-41
2023/05/17 06:44:29;;;;;;;12.68;2.53;;;;;;;12.09;100.00;102733.19;4961495;28;20422;-42
2023/05/17 06:46:55;;;;;;;16.30;2.42;;;;;;;12.49;100.00;102746.03;4956277;28;20505;-42
2023/05/17 06:49:20;;;;;;;13.88;2.92;;;;;;;12.79;100.00;102743.91;4955283;28;20490;-42
2023/05/17 06:51:47;;;;;;;12.18;3.13;;;;;;;12.63;100.00;102722.97;4953987;28;20483;-41
2023/05/17 06:54:13;;;;;;;15.35;3.50;;;;;;;12.72;100.00;102755.47;4973352;28;20402;-41
2023/05/17 06:56:38;;;;;;;12.35;3.17;;;;;;;12.36;100.00;102692.44;4976705;28;20042;-41
2023/05/17 06:59:04;;;;;;;8.75;2.58;;;;;;;12.91;100.00;102764.94;4981469;28;20035;-43
2023/05/17 07:01:30;;;;;;;13.13;3.30;;;;;;;12.91;100.00;102767.56;4973149;28;20049;-43
2023/05/17 07:03:56;;;;;;;14.73;3.47;;;;;;;12.72;100.00;102765.16;4956223;28;20090;-41
2023/05/17 07:06:21;;;;;;;12.23;2.80;;;;;;;12.63;100.00;102744.13;4956265;28;20035;-41
2023/05/17 07:08:46;;;;;;;15.02;3.42;;;;;;;12.62;100.00;102767.00;4972925;28;20023;-45
2023/05/17 07:11:12;;;;;;;15.23;2.60;;;;;;;12.23;100.00;102694.31;4956062;28;20131;-40
2023/05/17 07:13:37;;;;;;;10.88;2.72;;;;;;;12.56;100.00;102747.69;4938880;28;20035;-40
2023/05/17 07:16:05;;;;;;;11.50;2.80;;;;;;;12.25;100.00;102778.81;4982414;28;20057;-40
2023/05/17 07:18:30;;;;;;;12.43;2.92;;;;;;;12.02;100.00;102776.38;4992790;28;20034;-42
2023/05/17 07:20:56;;;;;;;13.35;3.28;;;;;;;12.11;100.00;102773.63;4992889;28;20043;-41
2023/05/17 07:23:21;;;;;;;14.25;3.20;;;;;;;12.60;100.00;102773.22;4992643;28;20038;-45
2023/05/17 07:25:46;;;;;;;8.23;2.80;;;;;;;12.61;100.00;102724.78;4992452;28;20070;-43
2023/05/17 07:28:12;;;;;;;9.55;2.45;;;;;;;13.26;100.00;102787.44;4973675;28;20137;-41
2023/05/17 07:30:37;;;;;;;8.70;1.98;;;;;;;13.14;100.00;102734.72;4953681;29;20039;-41
2023/05/17 07:33:02;;;;;;;12.15;2.38;;;;;;;12.85;100.00;102809.94;4973641;28;20038;-40
2023/05/17 07:35:28;;;;;;;8.75;2.47;;;;;;;12.57;100.00;102826.94;4981331;28;20038;-42
2023/05/17 07:37:53;;;;;;;11.40;2.42;;;;;;;12.78;100.00;102800.28;4959533;28;20038;-39
2023/05/17 07:40:18;;;;;;;9.52;2.47;;;;;;;13.39;100.00;102829.63;4975484;28;20510;-41
2023/05/17 07:42:44;;;;;;;12.13;2.67;;;;;;;13.44;100.00;102848.06;4974552;28;20038;-39
2023/05/17 07:45:09;;;;;;;7.72;2.28;;;;;;;13.84;100.00;102843.97;4947529;28;20070;-40
2023/05/17 07:47:35;;;;;;;10.73;2.35;;;;;;;14.44;100.00;102836.03;4976499;28;20458;-40
2023/05/17 07:50:00;;;;;;;8.52;2.15;;;;;;;14.94;100.00;102793.59;4979408;28;20482;-41
2023/05/17 07:52:26;;;;;;;9.88;1.83;;;;;;;15.40;100.00;102845.72;4974794;28;20073;-40
2023/05/17 07:54:51;;;;;;;6.55;2.15;;;;;;;15.40;100.00;102843.94;4974269;28;20034;-43
2023/05/17 07:57:16;;;;;;;11.73;2.28;;;;;;;15.23;100.00;102788.53;4958022;28;20059;-42
2023/05/17 07:59:41;;;;;;;8.45;2.08;;;;;;;15.44;100.00;102787.22;4976261;28;20530;-43
2023/05/17 08:02:07;;;;;;;6.93;2.42;;;;;;;15.80;100.00;102843.97;4976501;28;20073;-40
2023/05/17 08:04:32;;;;;;;6.72;1.48;;;;;;;15.72;100.00;102841.50;4972019;28;20097;-40
2023/05/17 08:06:59;;;;;;;7.45;1.88;;;;;;;15.19;100.00;102820.50;4960931;28;20084;-40
2023/05/17 08:09:25;;;;;;;6.78;1.70;;;;;;;15.37;100.00;102803.31;4993970;28;20046;-44
2023/05/17 08:11:50;;;;;;;8.43;2.25;;;;;;;15.46;100.00;102853.56;4995269;28;20045;-41
2023/05/17 08:14:16;;;;;;;6.38;2.05;;;;;;;16.17;100.00;102844.88;4995546;28;20038;-43
2023/05/17 08:16:43;;;;;;;10.60;1.88;;;;;;;16.10;100.00;102861.88;4995569;28;20034;-43
2023/05/17 08:19:11;;;;;;;7.18;2.17;;;;;;;16.15;100.00;102853.78;4994237;28;20066;-40
2023/05/17 08:21:37;;;;;;;7.00;2.03;;;;;;;16.04;100.00;102863.81;4995353;28;20137;-41
2023/05/17 08:24:03;;;;;;;7.88;1.80;;;;;;;15.21;100.00;102838.13;4970415;28;20050;-42
2023/05/17 08:26:28;;;;;;;5.78;1.98;;;;;;;15.61;100.00;102778.94;4993130;28;20049;-41
2023/05/17 08:28:54;;;;;;;11.15;2.05;;;;;;;16.15;100.00;102837.84;4995021;28;20537;-41
2023/05/17 08:31:19;;;;;;;9.40;2.17;;;;;;;16.11;100.00;102817.59;4975775;28;20058;-42
2023/05/17 08:33:44;;;;;;;6.82;1.55;;;;;;;16.23;100.00;102868.63;4993864;28;20042;-40
2023/05/17 08:36:10;;;;;;;6.05;1.52;;;;;;;15.87;100.00;102874.81;4993845;28;20034;-43
2023/05/17 08:38:36;;;;;;;8.38;1.92;;;;;;;16.08;100.00;102870.81;4993557;28;20030;-44
2023/05/17 08:41:01;;;;;;;5.25;1.48;;;;;;;15.65;100.00;102869.09;4972432;28;20074;-46
2023/05/17 08:43:27;;;;;;;6.53;1.42;;;;;;;15.88;100.00;102870.38;4973994;28;20038;-42
2023/05/17 08:45:53;;;;;;;4.40;1.60;;;;;;;16.53;100.00;102863.50;4972276;28;20116;-42
2023/05/17 08:48:19;;;;;;;7.93;1.90;;;;;;;16.75;100.00;102868.25;4974590;28;20130;-41
2023/05/17 08:50:46;;;;;;;6.78;2.17;;;;;;;17.18;100.00;102801.47;4973738;28;20043;-43
2023/05/17 08:53:12;;;;;;;6.55;1.90;;;;;;;17.55;100.00;102865.16;4973880;28;20027;-41
2023/05/17 08:55:39;;;;;;;10.18;1.85;;;;;;;17.32;100.00;102820.56;4976374;28;20034;-41
2023/05/17 08:58:06;;;;;;;5.90;1.50;;;;;;;16.94;100.00;102859.78;4974585;28;20121;-41
2023/05/17 09:00:32;;;;;;;8.35;1.63;;;;;;;16.87;100.00;102867.94;4992565;28;20057;-40
2023/05/17 09:02:59;;;;;;;6.40;1.30;;;;;;;16.88;100.00;102858.16;4975883;28;20093;-41
2023/05/17 09:05:25;;;;;;;6.35;1.48;;;;;;;16.64;100.00;102872.09;4975203;28;20129;-42
2023/05/17 09:07:51;;;;;;;9.20;2.17;;;;;;;16.41;100.00;102858.47;4975100;28;20465;-42
2023/05/17 09:10:17;;;;;;;4.70;1.60;;;;;;;16.50;100.00;102855.59;4975601;28;20050;-41
2023/05/17 09:12:43;;;;;;;8.38;1.60;;;;;;;17.14;100.00;102862.78;4941798;28;20043;-42
2023/05/17 09:15:19;;;;;;;8.13;1.90;;;;;;;17.43;100.00;102863.69;4965082;28;20502;-42
2023/05/17 09:17:52;;;;;;;8.63;2.03;;;;;;;17.00;100.00;102825.91;4968873;28;20085;-42
2023/05/17 09:20:32;;;;;;;6.78;1.90;;;;;;;17.43;100.00;102865.50;4944612;28;20053;-40
2023/05/17 09:22:58;;;;;;;9.32;2.15;;;;;;;18.49;100.00;102880.91;4956775;28;20043;-43
2023/05/17 09:25:24;;;;;;;10.68;2.58;;;;;;;18.32;100.00;102862.75;4965173;28;20105;-41
2023/05/17 09:27:53;;;;;;;4.88;1.35;;;;;;;17.62;100.00;102868.53;4953949;28;20389;-41
2023/05/17 09:30:18;;;;;;;4.63;1.92;;;;;;;18.18;100.00;102874.78;4972475;28;20046;-40
2023/05/17 09:32:44;;;;;;;8.98;2.33;;;;;;;18.22;100.00;102871.97;4971409;28;20046;-43
2023/05/17 09:35:10;;;;;;;5.53;1.73;;;;;;;17.83;100.00;102875.88;4966432;28;20051;-42
2023/05/17 09:37:37;;;;;;;5.15;1.65;;;;;;;17.37;100.00;102809.75;4971301;28;20034;-40
2023/05/17 09:40:05;;;;;;;6.35;1.67;;;;;;;18.37;100.00;102865.25;4937128;28;20475;-41
2023/05/17 09:42:35;;;;;;;5.40;1.60;;;;;;;18.05;100.00;102873.41;4952933;29;20046;-44
2023/05/17 09:45:01;;;;;;;4.80;1.50;;;;;;;17.89;100.00;102870.38;4935872;29;20134;-38
2023/05/17 09:47:27;;;;;;;6.03;1.98;;;;;;;18.14;100.00;102865.13;4935757;29;20155;-41
2023/05/17 09:49:59;;;;;;;5.75;1.60;;;;;;;18.38;100.00;102808.34;4935699;29;20035;-43
2023/05/17 09:52:30;;;;;;;7.47;1.65;;;;;;;18.54;100.00;102874.47;4952878;29;20069;-41
2023/05/17 09:54:56;;;;;;;;;;;;;;;18.54;100.00;102878.94;4981285;28;20034;-41
2023/05/17 09:57:22;;;;;;;6.20;1.38;;;;;;;19.01;100.00;102869.31;4985618;28;20377;-41
2023/05/17 09:59:48;;;;;;;6.18;1.38;;;;;;;19.17;100.00;102865.19;4914113;28;20038;-40
2023/05/17 10:02:19;;;;;;;4.50;1.50;;;;;;;18.62;100.00;102839.56;4942118;28;20054;-40
2023/05/17 10:04:46;;;;;;;5.38;1.70;;;;;;;17.69;100.00;102886.94;4967980;28;20089;-41
2023/05/17 10:07:12;;;;;;;4.05;1.40;;;;;;;18.01;100.00;102834.47;4953109;28;20058;-42
2023/05/17 10:09:38;;;;;;;8.10;1.38;;;;;;;18.73;100.00;102828.53;4978614;28;20041;-42
2023/05/17 10:12:04;;;;;;;6.57;1.60;;;;;;;19.20;100.00;102822.34;4970467;28;20375;-41
2023/05/17 10:14:31;;;;;;;5.13;1.73;;;;;;;19.31;100.00;102881.56;4945846;28;20565;-41
2023/05/17 10:16:57;;;;;;;5.82;1.33;;;;;;;19.08;100.00;102878.84;4960223;28;20034;-40
2023/05/17 10:19:24;;;;;;;5.05;2.13;;;;;;;19.36;100.00;102862.69;4985142;28;20035;-41
2023/05/17 10:21:51;;;;;;;5.38;1.65;;;;;;;19.46;98.75;102881.03;4992946;28;20137;-42
2023/05/17 10:24:16;;;;;;;6.78;1.60;;;;;;;19.24;98.30;102890.72;4975422;28;20030;-43
2023/05/17 10:26:42;;;;;;;8.25;1.77;;;;;;;18.45;98.95;102864.09;4959560;28;20378;-42
2023/05/17 10:29:08;;;;;;;8.32;1.85;;;;;;;18.68;100.00;102887.34;4975535;28;20046;-43
2023/05/17 10:31:35;;;;;;;4.60;1.70;;;;;;;19.16;100.00;102826.06;4975143;28;20046;-40
2023/05/17 10:34:02;;;;;;;5.72;1.55;;;;;;;19.96;100.00;102886.25;4975341;28;20026;-41
2023/05/17 10:36:28;;;;;;;4.25;1.55;;;;;;;19.94;92.02;102891.63;4990482;28;20040;-42
2023/05/17 10:38:54;;;;;;;6.43;1.73;;;;;;;19.93;96.80;102831.13;4991325;28;20034;-43
2023/05/17 10:41:25;;;;;;;8.55;1.60;;;;;;;19.87;96.34;102876.78;4991008;28;20038;-42
2023/05/17 10:43:52;;;;;;;5.75;1.77;;;;;;;19.19;98.73;102860.66;4990518;28;20430;-41
2023/05/17 10:46:20;;;;;;;5.60;1.58;;;;;;;18.98;100.00;102872.97;4973531;28;20034;-42
2023/05/17 10:48:47;;;;;;;5.53;1.80;;;;;;;19.53;98.77;102879.00;4989477;28;20038;-43
2023/05/17 10:51:14;;;;;;;6.53;1.90;;;;;;;19.40;99.55;102869.72;4973662;28;20451;-41
2023/05/17 10:54:01;;;;;;;8.55;1.85;;;;;;;20.14;100.00;102888.16;4989381;28;20109;-41
2023/05/17 10:56:27;;;;;;;5.65;2.13;;;;;;;20.38;100.00;102870.31;4991261;28;20065;-42
2023/05/17 10:59:20;;;;;;;8.05;1.55;;;;;;;19.86;100.00;102893.75;4973645;28;20058;-44
2023/05/17 11:01:53;;;;;;;7.78;1.52;;;;;;;20.32;100.00;102887.47;4990683;28;20043;-43
2023/05/17 11:04:24;;;;;;;6.55;1.95;;;;;;;19.56;98.82;102877.06;4991150;28;20489;-41
2023/05/17 11:06:50;;;;;;;;;;;;;;;19.64;100.00;102879.47;4991259;28;20034;-47
2023/05/17 11:09:16;;;;;;;8.27;2.08;;;;;;;19.33;100.00;102834.31;4975982;28;19921;-42
2023/05/17 11:12:04;;;;;;;6.97;1.60;;;;;;;20.06;100.00;102895.63;4986807;28;20034;-42
2023/05/17 11:14:52;;;;;;;5.93;1.95;;;;;;;20.15;100.00;102890.81;4939033;29;20039;-41